Latest Weather Observations for Thredbo Top Station

IDN60801

Issued at 8:05 pm EST Friday 25 July 2014 (issued every 30 minutes, with the page automatically refreshed every 10 minutes)

About weather observations | Map of weather stations | Latest weather observations for NSW | Other Formats
Station Details ID: 071032 Name: THREDBO AWS Lat: -36.49 Lon: 148.29 Height: 1957.0 m
Data from the previous 72 hours. | See also: Recent months at Thredbo Top Station
Date/Time
EST
Temp
°C
App
Temp
°C
Dew
Point
Rel
Hum
%
Delta-T
°C
Wind Press
QNH
hPa
Press
MSL
hPa
Rain
since 9 am
mm
Dir
 
Spd
km/h
Gust
km/h
Spd
kts
Gust
kts
25/08:03pm -0.2 -13.5 -0.9 95 0.3 W 59 85 32 46 1021.0 - 0.0
25/08:00pm -0.2 -13.5 -1.0 94 0.3 W 59 76 32 41 1020.7 1025.8 0.0
25/07:30pm -0.2 -13.2 -1.3 92 0.4 W 57 72 31 39 1020.5 - 0.0
25/07:14pm -0.2 -13.0 -1.3 92 0.4 W 56 74 30 40 1020.6 - 0.0
25/07:00pm -0.2 -13.1 -1.8 89 0.6 W 56 70 30 38 1020.5 1025.6 0.0
25/06:47pm 0.0 -13.0 -1.4 90 0.5 W 57 76 31 41 1020.3 - 0.0
25/06:30pm 0.0 -13.4 -1.6 89 0.6 W 59 74 32 40 1020.2 - 0.0
25/06:00pm -0.1 -13.1 -1.4 91 0.5 WSW 57 70 31 38 1019.6 1024.6 0.0
25/05:43pm -0.3 -13.3 -1.4 92 0.4 W 57 76 31 41 1019.4 - 0.0
25/05:30pm -0.2 -14.7 -1.2 93 0.4 WSW 65 80 35 43 1019.4 - 0.0
25/05:00pm -0.2 -15.5 -1.8 89 0.6 WSW 69 83 37 45 1018.7 1023.7 0.0
25/04:33pm 0.1 -14.3 -3.3 78 1.2 WSW 63 85 34 46 1018.4 - 0.0
25/04:30pm 0.1 -14.7 -3.4 77 1.3 WSW 65 80 35 43 1018.4 - 0.0
25/04:05pm 0.1 -14.9 -2.4 83 0.9 WSW 67 85 36 46 1018.2 - 0.0
25/04:00pm 0.3 -14.8 -2.9 79 1.2 WSW 67 80 36 43 1018.2 1023.2 0.0
25/03:49pm 0.1 -13.4 -2.4 83 0.9 W 59 78 32 42 1018.3 - 0.0
25/03:30pm 0.2 -13.3 -2.0 85 0.8 W 59 74 32 40 1018.4 - 0.0
25/03:00pm 0.3 -13.9 -2.1 84 0.9 W 63 80 34 43 1018.4 1023.4 0.0
25/02:35pm 0.3 -13.9 -2.1 84 0.9 W 63 83 34 45 1018.3 - 0.0
25/02:30pm 0.3 -13.6 -2.1 84 0.9 W 61 74 33 40 1018.4 - 0.0
25/02:00pm 0.3 -13.6 -2.4 82 1.0 W 61 78 33 42 1018.4 1023.4 0.0
25/01:41pm 0.2 -12.9 -2.2 84 0.9 W 57 76 31 41 1018.4 - 0.0
25/01:30pm 0.2 -13.7 -2.5 82 1.0 W 61 74 33 40 1018.6 - 0.0
25/01:00pm 0.2 -14.1 -2.2 84 0.9 W 63 72 34 39 1018.8 1023.8 0.0
25/12:30pm 0.3 -14.0 -2.2 83 1.0 W 63 78 34 42 1018.9 - 0.0
25/12:00pm 0.3 -15.0 -1.4 88 0.7 W 69 82 37 44 1019.1 1024.1 0.0
25/11:30am 0.2 -15.2 -2.2 84 0.9 W 69 80 37 43 1019.5 - 0.0
25/11:00am 0.5 -14.5 -2.2 82 1.0 W 67 80 36 43 1019.4 1024.4 0.0
25/10:30am 0.5 -14.8 -1.6 86 0.8 W 69 82 37 44 1019.4 - 0.0
25/10:00am 0.2 -15.7 -1.4 89 0.6 W 72 82 39 44 1019.5 1024.5 0.0
25/09:30am 0.3 -16.0 -1.6 87 0.7 W 74 89 40 48 1019.1 - 0.0
25/09:22am 0.3 -15.0 -0.1 97 0.2 W 70 89 38 48 1019.4 - 0.0
25/09:00am 0.2 -15.4 0.1 99 0.0 W 72 83 39 45 1018.9 1023.9 1.4
25/08:33am 0.3 -15.0 0.2 99 0.0 W 70 89 38 48 1018.4 - 1.4
25/08:30am 0.2 -15.4 0.1 99 0.0 W 72 89 39 48 1018.2 - 1.4
25/08:03am 0.4 -14.8 0.3 99 0.0 W 70 91 38 49 1018.1 - 1.4
25/08:00am 0.3 -14.8 0.2 99 0.0 W 69 85 37 46 1018.2 1023.2 1.4
25/07:30am 0.2 -14.1 0.1 99 0.0 W 65 83 35 45 1017.8 - 1.4
25/07:00am 0.5 -15.5 0.4 99 0.0 W 74 87 40 47 1017.4 1022.4 1.4
25/06:30am 0.6 -16.5 0.5 99 0.0 W 80 93 43 50 1017.0 - 1.2
25/06:00am 0.4 -16.7 0.3 99 0.0 W 80 93 43 50 1017.0 1021.9 1.2
25/05:30am 0.6 -16.5 0.5 99 0.0 W 80 100 43 54 1016.5 - 1.2
25/05:00am 0.6 -16.1 0.5 99 0.0 W 78 96 42 52 1016.5 1021.4 1.2
25/04:30am 0.6 -15.7 0.5 99 0.0 W 76 96 41 52 1016.6 - 1.2
25/04:00am 0.8 -15.5 0.7 99 0.0 W 76 100 41 54 1016.6 1021.5 1.2
25/03:30am 0.9 -15.4 0.8 99 0.0 W 76 95 41 51 1016.6 - 1.0
25/03:00am 1.2 -13.7 1.1 99 0.0 W 69 87 37 47 1016.7 1021.7 0.8
25/02:30am 1.0 -14.1 0.9 99 0.0 W 70 89 38 48 1017.2 - 0.8
25/02:00am 1.1 -13.5 1.0 99 0.0 WNW 67 91 36 49 1017.4 1022.4 0.6
25/01:33am 1.3 -13.6 1.2 99 0.0 WNW 69 87 37 47 1017.3 - 0.6
25/01:30am 1.2 -13.9 1.1 99 0.0 WNW 70 87 38 47 1017.3 - 0.6
25/01:03am 1.2 -13.7 1.1 99 0.0 WNW 69 87 37 47 1017.2 - 0.4
25/01:00am 1.2 -13.7 1.1 99 0.0 WNW 69 83 37 45 1017.0 1021.9 0.4
25/12:30am 1.1 -11.9 1.0 99 0.0 WNW 59 82 32 44 1017.5 - 0.4
25/12:05am 0.3 -12.3 0.2 99 0.0 WNW 56 74 30 40 1017.6 - 0.4
25/12:00am 0.6 -12.9 0.5 99 0.0 WNW 61 74 33 40 1017.8 1022.7 0.4
 
Date/Time
EST
Temp
°C
App
Temp
°C
Dew
Point
Rel
Hum
%
Delta-T
°C
Wind Press
QNH
hPa
Press
MSL
hPa
Rain
since 9 am
mm
Dir
 
Spd
km/h
Gust
km/h
Spd
kts
Gust
kts
24/11:31pm 0.6 -11.2 0.5 99 0.0 WNW 52 70 28 38 1018.0 - 0.4
24/11:30pm 0.6 -11.2 0.5 99 0.0 WNW 52 65 28 35 1018.0 - 0.4
24/11:00pm 0.6 -11.6 0.5 99 0.0 WNW 54 67 29 36 1018.1 1023.1 0.4
24/10:30pm 0.7 -11.5 0.6 99 0.0 WNW 54 69 29 37 1018.2 - 0.4
24/10:00pm 0.5 -10.2 0.4 99 0.0 WNW 46 59 25 32 1018.3 1023.3 0.4
24/09:30pm 1.0 -9.6 0.9 99 0.0 NW 46 57 25 31 1018.4 - 0.2
24/09:00pm 1.0 -8.6 0.9 99 0.0 NW 41 52 22 28 1018.3 1023.3 0.2
24/08:30pm 0.9 -9.3 0.8 99 0.0 WNW 44 56 24 30 1018.3 - 0.2
24/08:00pm 0.8 -7.3 0.7 99 0.0 NW 33 43 18 23 1018.1 1023.1 0.2
24/07:30pm 0.3 -9.1 0.2 99 0.0 NW 39 46 21 25 1017.8 - 0.2
24/07:00pm 0.2 -10.5 0.1 99 0.0 NW 46 56 25 30 1017.6 1022.6 0.2
24/06:30pm 0.2 -10.9 0.1 99 0.0 WNW 48 59 26 32 1017.4 - 0.2
24/06:00pm -0.2 -11.0 -0.3 99 0.0 WNW 46 54 25 29 1017.4 1022.4 0.2
24/05:30pm -0.4 -9.9 -0.5 99 0.0 WNW 39 50 21 27 1017.2 - 0.2
24/05:00pm -0.4 -12.0 -0.5 99 0.0 WNW 50 57 27 31 1017.1 1022.0 0.2
24/04:30pm -0.6 -12.6 -0.7 99 0.0 WNW 52 63 28 34 1016.8 - 0.2
24/04:00pm -0.7 -13.6 -0.8 99 0.0 WNW 57 67 31 36 1016.6 1021.5 0.2
24/03:30pm -0.8 -12.0 -0.9 99 0.0 WNW 48 56 26 30 1016.4 - 0.2
24/03:00pm -0.8 -10.7 -0.9 99 0.0 NW 41 52 22 28 1016.8 1021.8 0.2
24/02:30pm -0.9 -10.4 -1.0 99 0.0 NW 39 48 21 26 1016.6 - 0.2
24/02:00pm -0.6 -10.1 -0.7 99 0.0 NW 39 46 21 25 1016.5 1021.4 0.2
24/01:30pm -0.2 -8.3 -0.3 99 0.0 NW 32 37 17 20 1016.8 - 0.0
24/01:00pm -0.3 -9.4 -0.4 99 0.0 NW 37 48 20 26 1017.2 1022.1 0.0
24/12:57pm -0.2 -8.9 -0.3 99 0.0 NW 35 41 19 22 1017.2 - 0.0
24/12:30pm 0.1 -12.5 0.0 99 0.0 WNW 56 65 30 35 1016.6 - 0.0
24/12:00pm 0.8 -13.2 -0.1 94 0.4 W 63 72 34 39 1017.2 1022.1 0.0
24/11:40am 0.6 -12.6 -0.3 94 0.4 WNW 59 63 32 34 1017.8 - 0.0
24/11:30am 0.5 -9.3 -0.5 93 0.4 WNW 41 52 22 28 1018.2 - 0.0
24/11:00am 0.4 -10.7 -0.3 95 0.3 WNW 48 59 26 32 1018.4 1023.4 0.0
24/10:30am 0.1 -10.3 -0.7 94 0.3 WNW 44 50 24 27 1018.8 - 0.0
24/10:00am 0.4 -12.0 -1.2 89 0.6 WNW 54 63 29 34 1019.4 1024.4 0.0
24/09:45am 0.1 -10.8 -1.2 91 0.5 WNW 46 57 25 31 1019.2 - 0.0
24/09:30am -0.7 -9.7 -2.9 85 0.8 NW 35 39 19 21 1019.1 - 0.0
24/09:28am -0.8 -10.3 -3.5 82 0.9 NW 37 41 20 22 1019.1 - 0.0
24/09:00am -1.0 -8.7 -3.0 86 0.7 N 28 33 15 18 1019.2 1024.3 0.0
24/08:30am -1.4 -9.5 -3.4 86 0.7 NW 30 37 16 20 1019.1 - 0.0
24/08:00am -1.6 -11.8 -3.3 88 0.5 NW 41 46 22 25 1019.0 1024.0 0.0
24/07:30am -3.6 -13.1 -7.7 73 1.1 NW 35 41 19 22 1019.2 - 0.0
24/07:00am -3.1 -11.1 -10.4 57 2.0 NW 26 30 14 16 1019.0 1024.0 0.0
24/06:30am -3.1 -12.4 -10.0 59 1.9 NW 33 35 18 19 1018.9 - 0.0
24/06:00am -0.3 -11.6 -10.5 46 3.1 WNW 43 46 23 25 1018.7 1023.7 0.0
24/05:30am -0.5 -11.9 -9.9 49 2.8 WNW 44 46 24 25 1018.8 - 0.0
24/05:00am -0.7 -11.2 -10.6 47 2.9 WNW 39 44 21 24 1019.0 1024.0 0.0
24/04:30am -1.3 -11.4 -10.4 50 2.7 WNW 37 41 20 22 1018.9 - 0.0
24/04:00am -0.7 -11.2 -10.9 46 3.0 WNW 39 43 21 23 1019.0 1024.0 0.0
24/03:30am -1.8 -11.5 -10.3 52 2.4 NW 35 39 19 21 1018.9 - 0.0
24/03:00am -3.3 -12.6 -10.1 59 1.8 NW 33 35 18 19 1018.9 1023.9 0.0
24/02:30am -3.7 -12.6 -11.9 53 2.1 NW 30 33 16 18 1019.0 - 0.0
24/02:00am -1.6 -10.5 -11.9 45 2.9 NW 30 35 16 19 1019.2 1024.3 0.0
24/01:48am -1.4 -10.2 -11.2 47 2.8 NW 30 32 16 17 1019.2 - 0.0
24/01:30am -6.5 -14.7 -13.2 59 1.5 NW 26 28 14 15 1019.4 - 0.0
24/01:00am -3.3 -11.7 -10.4 58 1.9 NW 28 30 15 16 1019.5 1024.5 0.0
24/12:30am -3.3 -12.0 -9.5 62 1.7 NW 30 32 16 17 1019.8 - 0.0
24/12:00am -3.8 -12.6 -10.2 61 1.7 NW 30 32 16 17 1020.3 1025.3 0.0
 
Date/Time
EST
Temp
°C
App
Temp
°C
Dew
Point
Rel
Hum
%
Delta-T
°C
Wind Press
QNH
hPa
Press
MSL
hPa
Rain
since 9 am
mm
Dir
 
Spd
km/h
Gust
km/h
Spd
kts
Gust
kts
23/11:30pm -3.1 -11.6 -11.1 54 2.1 NW 28 30 15 16 1020.7 - 0.0
23/11:00pm -5.8 -14.0 -13.1 56 1.7 NW 26 28 14 15 1021.1 1026.2 0.0
23/10:30pm -5.7 -13.5 -13.0 56 1.7 WNW 24 28 13 15 1021.4 - 0.0
23/10:00pm -4.7 -12.9 -12.6 54 1.9 NW 26 28 14 15 1021.5 1026.6 0.0
23/09:30pm -6.3 -14.5 -12.8 60 1.4 NW 26 28 14 15 1021.8 - 0.0
23/09:00pm -3.7 -11.0 -11.4 55 2.0 NW 22 24 12 13 1021.8 1026.9 0.0
23/08:30pm -4.6 -12.3 -11.6 58 1.7 NW 24 24 13 13 1021.5 - 0.0
23/08:00pm -2.0 -8.8 -9.6 56 2.2 NW 20 22 11 12 1021.4 1026.5 0.0
23/07:30pm -4.2 -11.1 -10.2 63 1.6 WNW 20 22 11 12 1021.2 - 0.0
23/07:00pm -3.7 -11.0 -10.3 60 1.7 NW 22 24 12 13 1021.2 1026.3 0.0
23/06:30pm -3.1 -10.0 -10.4 57 2.0 NW 20 22 11 12 1021.1 - 0.0
23/06:00pm -3.3 -10.0 -11.0 55 2.0 NW 19 20 10 11 1021.0 1026.0 0.0
23/05:30pm -2.9 -9.8 -10.2 57 2.0 NW 20 20 11 11 1020.7 - 0.0
23/05:00pm -2.4 -8.7 -10.9 52 2.3 NW 17 19 9 10 1020.5 1025.6 0.0
23/04:30pm -1.0 -6.6 -10.6 48 2.8 NW 13 15 7 8 1020.4 - 0.0
23/04:00pm -2.4 -7.5 -9.5 58 2.0 NW 11 13 6 7 1020.3 1025.3 0.0
23/03:30pm -2.4 -7.5 -10.0 56 2.2 WNW 11 11 6 6 1020.3 - 0.0
23/03:00pm -1.6 -6.7 -9.0 57 2.2 WNW 11 11 6 6 1020.3 1025.3 0.0
23/02:30pm -0.3 -4.9 -8.0 56 2.5 WNW 9 13 5 7 1020.2 - 0.0
23/02:00pm 0.1 -4.5 -8.1 54 2.6 W 9 11 5 6 1020.2 1025.2 0.0
23/01:30pm 0.5 -4.4 -7.5 55 2.7 W 11 15 6 8 1020.4 - 0.0
23/01:00pm -0.4 -4.7 -9.5 50 2.8 WNW 7 11 4 6 1020.5 1025.6 0.0
23/12:30pm 2.7 -1.1 -9.8 39 4.1 WSW 4 6 2 3 1021.0 - 0.0
23/12:00pm -0.1 -4.4 -9.0 51 2.8 W 7 11 4 6 1021.4 1026.5 0.0
23/11:30am 0.4 -3.7 -9.0 49 3.0 W 6 7 3 4 1022.0 - 0.0
23/11:00am -0.5 -4.8 -8.6 54 2.5 W 7 9 4 5 1022.6 1027.7 0.0
23/10:30am -1.0 -5.2 -10.3 49 2.7 WNW 6 9 3 5 1022.9 - 0.0
23/10:00am -1.6 -5.5 -10.6 50 2.6 WNW 4 7 2 4 1023.1 1028.3 0.0
23/09:30am -0.2 -4.0 -10.4 46 3.1 SW 4 7 2 4 1023.4 - 0.0
23/09:00am -0.5 -4.3 -5.3 70 1.6 S 6 9 3 5 1023.5 1028.6 0.0
23/08:30am -1.3 -5.3 -5.5 73 1.4 S 7 11 4 6 1023.6 - 0.0
23/08:00am -1.5 -6.3 -6.1 71 1.5 S 11 17 6 9 1023.4 1028.5 0.0
23/07:30am -2.0 -7.2 -6.2 73 1.3 S 13 19 7 10 1023.4 - 0.0
23/07:00am -2.6 -8.2 -6.4 75 1.1 S 15 19 8 10 1023.1 1028.3 0.0
23/06:30am -2.4 -8.0 -6.4 74 1.2 SSW 15 19 8 10 1023.0 - 0.0
23/06:00am -2.1 -8.5 -6.5 72 1.3 SSW 19 20 10 11 1022.7 1027.8 0.0
23/05:30am -2.3 -8.7 -7.2 69 1.5 SSW 19 22 10 12 1022.4 - 0.0
23/05:00am -2.1 -8.2 -7.4 67 1.6 SSW 17 20 9 11 1022.6 1027.7 0.0
23/04:30am -2.5 -8.6 -8.0 66 1.6 SSW 17 20 9 11 1022.6 - 0.0
23/04:00am -2.7 -8.9 -8.5 64 1.7 SSW 17 20 9 11 1022.2 1027.3 0.0
23/03:30am -2.6 -8.4 -8.7 63 1.8 SSW 15 19 8 10 1022.3 - 0.0
23/03:00am -2.5 -8.7 -9.2 60 1.9 SSW 17 19 9 10 1022.4 1027.6 0.0
23/02:30am -2.5 -8.3 -8.8 62 1.8 SSW 15 19 8 10 1022.6 - 0.0
23/02:00am -2.2 -8.0 -8.1 64 1.7 SW 15 19 8 10 1022.8 1027.9 0.0
23/01:30am -1.7 -7.8 -7.2 66 1.7 SW 17 19 9 10 1023.0 - 0.0
23/01:00am -1.9 -7.6 -7.4 66 1.7 SW 15 17 8 9 1023.0 1028.2 0.0
23/12:30am -2.0 -8.0 -6.7 70 1.4 WSW 17 19 9 10 1023.2 - 0.0
23/12:00am -2.5 -7.8 -7.6 68 1.5 SW 13 15 7 8 1023.4 1028.5 0.0
 
Date/Time
EST
Temp
°C
App
Temp
°C
Dew
Point
Rel
Hum
%
Delta-T
°C
Wind Press
QNH
hPa
Press
MSL
hPa
Rain
since 9 am
mm
Dir
 
Spd
km/h
Gust
km/h
Spd
kts
Gust
kts
22/11:30pm -3.6 -8.6 -8.4 69 1.3 SSW 11 15 6 8 1023.6 - 0.0
22/11:00pm -5.9 -10.0 -9.4 76 0.8 WNW 6 9 3 5 1023.7 1028.9 0.0
22/10:30pm -4.2 -8.2 -8.0 75 1.0 W 6 7 3 4 1023.7 - 0.0
22/10:00pm -5.3 -9.6 -8.8 76 0.8 WNW 7 9 4 5 1023.8 1029.0 0.0
22/09:30pm -5.5 -9.6 -9.0 76 0.8 W 6 9 3 5 1023.8 - 0.0
22/09:00pm -4.4 -8.4 -7.8 77 0.9 WNW 6 9 3 5 1023.6 1028.8 0.0
22/08:30pm -2.7 -6.8 -6.2 77 1.0 S 7 11 4 6 1023.4 - 0.0

Other Formats:

Comma delimited format used in spreadsheet applications
http://www.bom.gov.au/fwo/IDN60801/IDN60801.95909.axf

JavaScript Object Notation format (JSON) in row-major order
http://www.bom.gov.au/fwo/IDN60801/IDN60801.95909.json